sensor_id;sensor_type;location;lat;lon;timestamp;temperature;humidity
29031;DHT22;16122;50.236;11.734;2023-12-14T00:00:48;16.30;96.10
29031;DHT22;16122;50.236;11.734;2023-12-14T00:03:14;16.30;96.00
29031;DHT22;16122;50.236;11.734;2023-12-14T00:05:40;16.30;96.00
29031;DHT22;16122;50.236;11.734;2023-12-14T00:08:05;16.20;95.90
29031;DHT22;16122;50.236;11.734;2023-12-14T00:10:31;16.30;96.00
29031;DHT22;16122;50.236;11.734;2023-12-14T00:12:57;16.30;95.90
29031;DHT22;16122;50.236;11.734;2023-12-14T00:15:23;16.30;96.00
29031;DHT22;16122;50.236;11.734;2023-12-14T00:17:49;16.30;96.00
29031;DHT22;16122;50.236;11.734;2023-12-14T00:20:14;16.30;95.90
29031;DHT22;16122;50.236;11.734;2023-12-14T00:22:40;16.30;95.90
29031;DHT22;16122;50.236;11.734;2023-12-14T00:25:06;16.20;95.90
29031;DHT22;16122;50.236;11.734;2023-12-14T00:27:32;16.20;95.90
29031;DHT22;16122;50.236;11.734;2023-12-14T00:29:58;16.20;95.80
29031;DHT22;16122;50.236;11.734;2023-12-14T00:32:24;16.30;96.00
29031;DHT22;16122;50.236;11.734;2023-12-14T00:34:50;16.20;95.90
29031;DHT22;16122;50.236;11.734;2023-12-14T00:37:16;16.30;95.90
29031;DHT22;16122;50.236;11.734;2023-12-14T00:39:41;16.20;95.80
29031;DHT22;16122;50.236;11.734;2023-12-14T00:42:07;16.10;95.80
29031;DHT22;16122;50.236;11.734;2023-12-14T00:44:33;16.20;95.90
29031;DHT22;16122;50.236;11.734;2023-12-14T00:46:59;16.10;95.90
29031;DHT22;16122;50.236;11.734;2023-12-14T00:49:25;16.20;95.90
29031;DHT22;16122;50.236;11.734;2023-12-14T00:51:53;16.20;95.70
29031;DHT22;16122;50.236;11.734;2023-12-14T00:54:19;16.20;95.60
29031;DHT22;16122;50.236;11.734;2023-12-14T00:56:45;16.20;95.60
29031;DHT22;16122;50.236;11.734;2023-12-14T00:59:11;16.20;95.90
29031;DHT22;16122;50.236;11.734;2023-12-14T01:01:36;16.20;95.60
29031;DHT22;16122;50.236;11.734;2023-12-14T01:04:02;16.20;95.50
29031;DHT22;16122;50.236;11.734;2023-12-14T01:06:28;16.20;95.50
29031;DHT22;16122;50.236;11.734;2023-12-14T01:08:54;16.30;95.70
29031;DHT22;16122;50.236;11.734;2023-12-14T01:11:20;16.20;95.50
29031;DHT22;16122;50.236;11.734;2023-12-14T01:13:45;16.20;95.60
29031;DHT22;16122;50.236;11.734;2023-12-14T01:16:11;16.30;95.50
29031;DHT22;16122;50.236;11.734;2023-12-14T01:18:37;16.20;95.50
29031;DHT22;16122;50.236;11.734;2023-12-14T01:21:03;16.20;95.50
29031;DHT22;16122;50.236;11.734;2023-12-14T01:23:28;16.20;95.60
29031;DHT22;16122;50.236;11.734;2023-12-14T01:25:54;16.20;95.60
29031;DHT22;16122;50.236;11.734;2023-12-14T01:28:20;16.20;95.50
29031;DHT22;16122;50.236;11.734;2023-12-14T01:30:46;16.20;95.30
29031;DHT22;16122;50.236;11.734;2023-12-14T01:33:12;16.20;95.40
29031;DHT22;16122;50.236;11.734;2023-12-14T01:35:38;16.20;95.40
29031;DHT22;16122;50.236;11.734;2023-12-14T01:38:03;16.20;95.40
29031;DHT22;16122;50.236;11.734;2023-12-14T01:40:29;16.20;95.60
29031;DHT22;16122;50.236;11.734;2023-12-14T01:43:06;16.20;95.60
29031;DHT22;16122;50.236;11.734;2023-12-14T01:45:32;16.10;95.40
29031;DHT22;16122;50.236;11.734;2023-12-14T01:47:58;16.20;95.60
29031;DHT22;16122;50.236;11.734;2023-12-14T01:50:23;16.10;95.70
29031;DHT22;16122;50.236;11.734;2023-12-14T01:52:49;16.10;95.80
29031;DHT22;16122;50.236;11.734;2023-12-14T01:55:15;16.10;95.90
29031;DHT22;16122;50.236;11.734;2023-12-14T01:57:40;16.10;95.70
29031;DHT22;16122;50.236;11.734;2023-12-14T02:00:07;16.20;95.70
29031;DHT22;16122;50.236;11.734;2023-12-14T02:02:33;16.10;95.70
29031;DHT22;16122;50.236;11.734;2023-12-14T02:05:00;16.20;95.80
29031;DHT22;16122;50.236;11.734;2023-12-14T02:07:26;16.20;96.00
29031;DHT22;16122;50.236;11.734;2023-12-14T02:09:52;16.20;95.60
29031;DHT22;16122;50.236;11.734;2023-12-14T02:12:18;16.20;95.70
29031;DHT22;16122;50.236;11.734;2023-12-14T02:14:44;16.20;95.60
29031;DHT22;16122;50.236;11.734;2023-12-14T02:17:09;16.20;95.60
29031;DHT22;16122;50.236;11.734;2023-12-14T02:19:35;16.20;95.70
29031;DHT22;16122;50.236;11.734;2023-12-14T02:22:01;16.20;95.60
29031;DHT22;16122;50.236;11.734;2023-12-14T02:24:27;16.20;95.60
29031;DHT22;16122;50.236;11.734;2023-12-14T02:26:52;16.20;95.60
29031;DHT22;16122;50.236;11.734;2023-12-14T02:29:18;16.20;95.50
29031;DHT22;16122;50.236;11.734;2023-12-14T02:31:44;16.30;95.60
29031;DHT22;16122;50.236;11.734;2023-12-14T02:34:12;16.20;95.70
29031;DHT22;16122;50.236;11.734;2023-12-14T02:36:37;16.20;95.70
29031;DHT22;16122;50.236;11.734;2023-12-14T02:39:03;16.20;95.70
29031;DHT22;16122;50.236;11.734;2023-12-14T02:41:29;16.20;95.70
29031;DHT22;16122;50.236;11.734;2023-12-14T02:43:55;16.20;95.70
29031;DHT22;16122;50.236;11.734;2023-12-14T02:46:20;16.20;95.50
29031;DHT22;16122;50.236;11.734;2023-12-14T02:48:47;16.20;95.50
29031;DHT22;16122;50.236;11.734;2023-12-14T02:51:13;16.20;95.40
29031;DHT22;16122;50.236;11.734;2023-12-14T02:53:40;16.20;95.40
29031;DHT22;16122;50.236;11.734;2023-12-14T02:56:06;16.20;95.30
29031;DHT22;16122;50.236;11.734;2023-12-14T02:58:32;16.10;95.30
29031;DHT22;16122;50.236;11.734;2023-12-14T03:00:58;16.20;95.40
29031;DHT22;16122;50.236;11.734;2023-12-14T03:03:24;16.20;95.30
29031;DHT22;16122;50.236;11.734;2023-12-14T03:05:50;16.10;95.20
29031;DHT22;16122;50.236;11.734;2023-12-14T03:08:15;16.20;95.20
29031;DHT22;16122;50.236;11.734;2023-12-14T03:10:41;16.20;95.20
29031;DHT22;16122;50.236;11.734;2023-12-14T03:13:07;16.20;95.20
29031;DHT22;16122;50.236;11.734;2023-12-14T03:15:32;16.20;95.30
29031;DHT22;16122;50.236;11.734;2023-12-14T03:17:58;16.20;95.10
29031;DHT22;16122;50.236;11.734;2023-12-14T03:20:24;16.20;95.10
29031;DHT22;16122;50.236;11.734;2023-12-14T03:22:50;16.20;95.00
29031;DHT22;16122;50.236;11.734;2023-12-14T03:25:16;16.20;95.00
29031;DHT22;16122;50.236;11.734;2023-12-14T03:27:42;16.20;95.10
29031;DHT22;16122;50.236;11.734;2023-12-14T03:30:08;16.10;95.00
29031;DHT22;16122;50.236;11.734;2023-12-14T03:32:36;16.10;95.10
29031;DHT22;16122;50.236;11.734;2023-12-14T03:35:01;16.10;95.10
29031;DHT22;16122;50.236;11.734;2023-12-14T03:37:27;16.20;95.10
29031;DHT22;16122;50.236;11.734;2023-12-14T03:39:53;16.20;95.10
29031;DHT22;16122;50.236;11.734;2023-12-14T03:42:19;16.10;95.10
29031;DHT22;16122;50.236;11.734;2023-12-14T03:44:45;16.10;95.10
29031;DHT22;16122;50.236;11.734;2023-12-14T03:47:10;16.10;95.10
29031;DHT22;16122;50.236;11.734;2023-12-14T03:49:37;16.10;95.10
29031;DHT22;16122;50.236;11.734;2023-12-14T03:52:04;16.10;95.10
29031;DHT22;16122;50.236;11.734;2023-12-14T03:54:30;16.10;95.20
29031;DHT22;16122;50.236;11.734;2023-12-14T03:56:55;16.10;95.40
29031;DHT22;16122;50.236;11.734;2023-12-14T03:59:21;16.10;95.30
29031;DHT22;16122;50.236;11.734;2023-12-14T04:01:47;16.10;95.40
29031;DHT22;16122;50.236;11.734;2023-12-14T04:04:13;16.10;95.40
29031;DHT22;16122;50.236;11.734;2023-12-14T04:06:38;16.10;95.10
29031;DHT22;16122;50.236;11.734;2023-12-14T04:09:04;16.10;95.20
29031;DHT22;16122;50.236;11.734;2023-12-14T04:11:30;16.20;95.20
29031;DHT22;16122;50.236;11.734;2023-12-14T04:13:56;16.10;95.20
29031;DHT22;16122;50.236;11.734;2023-12-14T04:16:22;16.10;95.20
29031;DHT22;16122;50.236;11.734;2023-12-14T04:18:49;16.10;95.20
29031;DHT22;16122;50.236;11.734;2023-12-14T04:21:15;16.10;95.30
29031;DHT22;16122;50.236;11.734;2023-12-14T04:23:40;16.10;95.30
29031;DHT22;16122;50.236;11.734;2023-12-14T04:26:06;16.20;95.30
29031;DHT22;16122;50.236;11.734;2023-12-14T04:28:33;16.20;95.30
29031;DHT22;16122;50.236;11.734;2023-12-14T04:30:58;16.10;95.20
29031;DHT22;16122;50.236;11.734;2023-12-14T04:33:24;16.10;95.10
29031;DHT22;16122;50.236;11.734;2023-12-14T04:35:50;16.10;95.00
29031;DHT22;16122;50.236;11.734;2023-12-14T04:38:16;16.10;95.10
29031;DHT22;16122;50.236;11.734;2023-12-14T04:40:42;16.10;95.10
29031;DHT22;16122;50.236;11.734;2023-12-14T04:43:07;16.10;95.40
29031;DHT22;16122;50.236;11.734;2023-12-14T04:45:33;16.10;94.90
29031;DHT22;16122;50.236;11.734;2023-12-14T04:47:59;16.10;94.70
29031;DHT22;16122;50.236;11.734;2023-12-14T04:50:25;16.10;94.70
29031;DHT22;16122;50.236;11.734;2023-12-14T04:52:51;16.10;94.90
29031;DHT22;16122;50.236;11.734;2023-12-14T04:55:17;16.10;94.80
29031;DHT22;16122;50.236;11.734;2023-12-14T04:57:43;16.10;94.80
29031;DHT22;16122;50.236;11.734;2023-12-14T05:00:10;16.10;95.10
29031;DHT22;16122;50.236;11.734;2023-12-14T05:02:35;16.20;95.00
29031;DHT22;16122;50.236;11.734;2023-12-14T05:05:01;16.10;94.70
29031;DHT22;16122;50.236;11.734;2023-12-14T05:07:27;16.10;94.60
29031;DHT22;16122;50.236;11.734;2023-12-14T05:09:54;16.10;94.60
29031;DHT22;16122;50.236;11.734;2023-12-14T05:12:20;16.10;94.80
29031;DHT22;16122;50.236;11.734;2023-12-14T05:14:46;16.10;94.90
29031;DHT22;16122;50.236;11.734;2023-12-14T05:17:11;16.10;95.10
29031;DHT22;16122;50.236;11.734;2023-12-14T05:19:37;16.10;95.00
29031;DHT22;16122;50.236;11.734;2023-12-14T05:22:03;16.10;95.10
29031;DHT22;16122;50.236;11.734;2023-12-14T05:24:29;16.00;95.20
29031;DHT22;16122;50.236;11.734;2023-12-14T05:26:55;16.10;95.40
29031;DHT22;16122;50.236;11.734;2023-12-14T05:29:21;16.00;95.50
29031;DHT22;16122;50.236;11.734;2023-12-14T05:31:47;16.10;95.50
29031;DHT22;16122;50.236;11.734;2023-12-14T05:34:13;16.10;95.60
29031;DHT22;16122;50.236;11.734;2023-12-14T05:36:38;16.10;95.70
29031;DHT22;16122;50.236;11.734;2023-12-14T05:39:04;16.10;95.70
29031;DHT22;16122;50.236;11.734;2023-12-14T05:41:30;16.20;95.80
29031;DHT22;16122;50.236;11.734;2023-12-14T05:43:56;16.10;95.80
29031;DHT22;16122;50.236;11.734;2023-12-14T05:46:23;16.10;95.90
29031;DHT22;16122;50.236;11.734;2023-12-14T05:48:49;16.10;96.00
29031;DHT22;16122;50.236;11.734;2023-12-14T05:51:28;16.20;96.20
29031;DHT22;16122;50.236;11.734;2023-12-14T05:53:54;16.20;96.10
29031;DHT22;16122;50.236;11.734;2023-12-14T05:56:20;16.20;96.00
29031;DHT22;16122;50.236;11.734;2023-12-14T05:58:46;16.30;96.20
29031;DHT22;16122;50.236;11.734;2023-12-14T06:01:12;16.30;96.30
29031;DHT22;16122;50.236;11.734;2023-12-14T06:03:37;16.30;96.30
29031;DHT22;16122;50.236;11.734;2023-12-14T06:06:03;16.20;96.30
29031;DHT22;16122;50.236;11.734;2023-12-14T06:08:29;16.30;96.40
29031;DHT22;16122;50.236;11.734;2023-12-14T06:10:55;16.30;96.30
29031;DHT22;16122;50.236;11.734;2023-12-14T06:13:20;16.20;96.40
29031;DHT22;16122;50.236;11.734;2023-12-14T06:15:47;16.20;96.50
29031;DHT22;16122;50.236;11.734;2023-12-14T06:18:12;16.20;96.60
29031;DHT22;16122;50.236;11.734;2023-12-14T06:20:39;16.30;96.50
29031;DHT22;16122;50.236;11.734;2023-12-14T06:23:06;16.20;96.60
29031;DHT22;16122;50.236;11.734;2023-12-14T06:25:32;16.30;96.50
29031;DHT22;16122;50.236;11.734;2023-12-14T06:27:57;16.30;96.50
29031;DHT22;16122;50.236;11.734;2023-12-14T06:30:23;16.30;96.60
29031;DHT22;16122;50.236;11.734;2023-12-14T06:32:49;16.20;96.60
29031;DHT22;16122;50.236;11.734;2023-12-14T06:35:15;16.20;96.60
29031;DHT22;16122;50.236;11.734;2023-12-14T06:37:41;16.20;96.60
29031;DHT22;16122;50.236;11.734;2023-12-14T06:40:10;16.20;96.60
29031;DHT22;16122;50.236;11.734;2023-12-14T06:42:36;16.30;96.70
29031;DHT22;16122;50.236;11.734;2023-12-14T06:45:02;16.30;96.70
29031;DHT22;16122;50.236;11.734;2023-12-14T06:47:28;16.20;96.70
29031;DHT22;16122;50.236;11.734;2023-12-14T06:49:54;16.20;96.70
29031;DHT22;16122;50.236;11.734;2023-12-14T06:52:23;16.20;96.80
29031;DHT22;16122;50.236;11.734;2023-12-14T06:54:48;16.20;96.90
29031;DHT22;16122;50.236;11.734;2023-12-14T06:57:14;16.20;96.90
29031;DHT22;16122;50.236;11.734;2023-12-14T06:59:40;16.20;96.60
29031;DHT22;16122;50.236;11.734;2023-12-14T07:02:07;16.20;96.70
29031;DHT22;16122;50.236;11.734;2023-12-14T07:04:33;16.20;96.80
29031;DHT22;16122;50.236;11.734;2023-12-14T07:06:58;16.20;97.00
29031;DHT22;16122;50.236;11.734;2023-12-14T07:09:25;16.20;96.90
29031;DHT22;16122;50.236;11.734;2023-12-14T07:11:51;16.20;96.50
29031;DHT22;16122;50.236;11.734;2023-12-14T07:14:17;16.20;96.60
29031;DHT22;16122;50.236;11.734;2023-12-14T07:16:43;16.20;96.60
29031;DHT22;16122;50.236;11.734;2023-12-14T07:19:10;16.20;96.60
29031;DHT22;16122;50.236;11.734;2023-12-14T07:21:36;16.20;96.50
29031;DHT22;16122;50.236;11.734;2023-12-14T07:24:03;16.10;96.40
29031;DHT22;16122;50.236;11.734;2023-12-14T07:26:28;16.10;96.30
29031;DHT22;16122;50.236;11.734;2023-12-14T07:28:54;16.10;96.50
29031;DHT22;16122;50.236;11.734;2023-12-14T07:31:20;16.20;96.40
29031;DHT22;16122;50.236;11.734;2023-12-14T07:33:46;16.10;96.30
29031;DHT22;16122;50.236;11.734;2023-12-14T07:36:12;16.10;96.30
29031;DHT22;16122;50.236;11.734;2023-12-14T07:38:37;16.10;96.20
29031;DHT22;16122;50.236;11.734;2023-12-14T07:41:04;16.10;96.00
29031;DHT22;16122;50.236;11.734;2023-12-14T07:43:30;16.10;96.10
29031;DHT22;16122;50.236;11.734;2023-12-14T07:45:56;16.10;96.10
29031;DHT22;16122;50.236;11.734;2023-12-14T07:48:21;16.10;96.10
29031;DHT22;16122;50.236;11.734;2023-12-14T07:50:47;16.10;96.20
29031;DHT22;16122;50.236;11.734;2023-12-14T07:53:14;16.10;96.10
29031;DHT22;16122;50.236;11.734;2023-12-14T07:55:39;16.10;96.10
29031;DHT22;16122;50.236;11.734;2023-12-14T07:58:05;16.10;95.90
29031;DHT22;16122;50.236;11.734;2023-12-14T08:00:31;16.10;96.00
29031;DHT22;16122;50.236;11.734;2023-12-14T08:02:57;16.10;96.00
29031;DHT22;16122;50.236;11.734;2023-12-14T08:05:22;16.20;95.90
29031;DHT22;16122;50.236;11.734;2023-12-14T08:07:48;16.20;96.20
29031;DHT22;16122;50.236;11.734;2023-12-14T08:10:18;16.30;95.90
29031;DHT22;16122;50.236;11.734;2023-12-14T08:12:44;16.20;95.90
29031;DHT22;16122;50.236;11.734;2023-12-14T08:15:10;16.20;95.80
29031;DHT22;16122;50.236;11.734;2023-12-14T08:17:37;16.20;95.80
29031;DHT22;16122;50.236;11.734;2023-12-14T08:20:03;16.20;95.80
29031;DHT22;16122;50.236;11.734;2023-12-14T08:22:34;16.20;95.90
29031;DHT22;16122;50.236;11.734;2023-12-14T08:25:00;16.20;95.90
29031;DHT22;16122;50.236;11.734;2023-12-14T08:27:26;16.20;95.70
29031;DHT22;16122;50.236;11.734;2023-12-14T08:29:52;16.20;95.60
29031;DHT22;16122;50.236;11.734;2023-12-14T08:32:18;16.20;95.70
29031;DHT22;16122;50.236;11.734;2023-12-14T08:34:43;16.30;95.80
29031;DHT22;16122;50.236;11.734;2023-12-14T08:37:09;16.20;95.70
29031;DHT22;16122;50.236;11.734;2023-12-14T08:39:35;16.20;95.90
29031;DHT22;16122;50.236;11.734;2023-12-14T08:42:01;16.20;95.40
29031;DHT22;16122;50.236;11.734;2023-12-14T08:44:26;16.00;95.30
29031;DHT22;16122;50.236;11.734;2023-12-14T08:46:52;16.10;95.40
29031;DHT22;16122;50.236;11.734;2023-12-14T08:49:18;16.10;95.30
29031;DHT22;16122;50.236;11.734;2023-12-14T08:51:44;16.20;95.40
29031;DHT22;16122;50.236;11.734;2023-12-14T08:54:10;16.20;95.30
29031;DHT22;16122;50.236;11.734;2023-12-14T08:56:35;16.10;95.20
29031;DHT22;16122;50.236;11.734;2023-12-14T08:59:01;16.20;95.30
29031;DHT22;16122;50.236;11.734;2023-12-14T09:01:29;16.20;95.20
29031;DHT22;16122;50.236;11.734;2023-12-14T09:03:55;16.10;95.10
29031;DHT22;16122;50.236;11.734;2023-12-14T09:06:21;16.10;95.00
29031;DHT22;16122;50.236;11.734;2023-12-14T09:08:47;16.20;95.00
29031;DHT22;16122;50.236;11.734;2023-12-14T09:11:12;16.20;94.90
29031;DHT22;16122;50.236;11.734;2023-12-14T09:13:38;16.20;95.20
29031;DHT22;16122;50.236;11.734;2023-12-14T09:16:04;16.20;95.30
29031;DHT22;16122;50.236;11.734;2023-12-14T09:18:30;16.20;95.40
29031;DHT22;16122;50.236;11.734;2023-12-14T09:20:56;16.20;95.70
29031;DHT22;16122;50.236;11.734;2023-12-14T09:23:22;16.20;95.80
29031;DHT22;16122;50.236;11.734;2023-12-14T09:25:48;16.10;95.80
29031;DHT22;16122;50.236;11.734;2023-12-14T09:28:15;16.20;95.90
29031;DHT22;16122;50.236;11.734;2023-12-14T09:30:41;16.20;96.00
29031;DHT22;16122;50.236;11.734;2023-12-14T09:33:06;16.20;96.20
29031;DHT22;16122;50.236;11.734;2023-12-14T09:35:34;16.20;96.60
29031;DHT22;16122;50.236;11.734;2023-12-14T09:38:03;16.10;96.30
29031;DHT22;16122;50.236;11.734;2023-12-14T09:40:29;16.10;96.50
29031;DHT22;16122;50.236;11.734;2023-12-14T09:42:56;16.10;96.70
29031;DHT22;16122;50.236;11.734;2023-12-14T09:45:29;16.10;96.80
29031;DHT22;16122;50.236;11.734;2023-12-14T09:47:57;16.10;97.30
29031;DHT22;16122;50.236;11.734;2023-12-14T09:50:23;16.10;97.90
29031;DHT22;16122;50.236;11.734;2023-12-14T09:52:49;16.20;98.20
29031;DHT22;16122;50.236;11.734;2023-12-14T09:55:16;16.10;98.50
29031;DHT22;16122;50.236;11.734;2023-12-14T09:57:42;16.10;98.60
29031;DHT22;16122;50.236;11.734;2023-12-14T10:00:08;16.10;98.70
29031;DHT22;16122;50.236;11.734;2023-12-14T10:02:40;16.20;99.00
29031;DHT22;16122;50.236;11.734;2023-12-14T10:05:10;16.20;98.70
29031;DHT22;16122;50.236;11.734;2023-12-14T10:07:43;16.20;98.60
29031;DHT22;16122;50.236;11.734;2023-12-14T10:10:13;16.20;98.50
29031;DHT22;16122;50.236;11.734;2023-12-14T10:12:53;16.20;98.30
29031;DHT22;16122;50.236;11.734;2023-12-14T10:15:19;16.30;98.30
29031;DHT22;16122;50.236;11.734;2023-12-14T10:17:45;16.30;98.20
29031;DHT22;16122;50.236;11.734;2023-12-14T10:20:21;16.30;98.10
29031;DHT22;16122;50.236;11.734;2023-12-14T10:22:51;16.20;98.00
29031;DHT22;16122;50.236;11.734;2023-12-14T10:25:20;16.30;98.00
29031;DHT22;16122;50.236;11.734;2023-12-14T10:27:50;16.30;98.10
29031;DHT22;16122;50.236;11.734;2023-12-14T10:30:18;16.20;98.00
29031;DHT22;16122;50.236;11.734;2023-12-14T10:32:47;16.20;98.10
29031;DHT22;16122;50.236;11.734;2023-12-14T10:35:14;16.20;98.00
29031;DHT22;16122;50.236;11.734;2023-12-14T10:37:42;16.20;98.30
29031;DHT22;16122;50.236;11.734;2023-12-14T10:40:13;16.20;98.00
29031;DHT22;16122;50.236;11.734;2023-12-14T10:42:42;16.20;98.10
29031;DHT22;16122;50.236;11.734;2023-12-14T10:45:11;16.30;98.10
29031;DHT22;16122;50.236;11.734;2023-12-14T10:47:43;16.30;98.00
29031;DHT22;16122;50.236;11.734;2023-12-14T10:50:11;16.30;97.70
29031;DHT22;16122;50.236;11.734;2023-12-14T10:52:41;16.30;97.60
29031;DHT22;16122;50.236;11.734;2023-12-14T10:57:45;16.30;98.00
29031;DHT22;16122;50.236;11.734;2023-12-14T11:00:11;16.30;98.10
29031;DHT22;16122;50.236;11.734;2023-12-14T11:02:41;16.40;98.20
29031;DHT22;16122;50.236;11.734;2023-12-14T11:05:12;16.30;98.10
29031;DHT22;16122;50.236;11.734;2023-12-14T11:07:52;16.30;98.30
29031;DHT22;16122;50.236;11.734;2023-12-14T11:10:36;16.30;98.20
29031;DHT22;16122;50.236;11.734;2023-12-14T11:13:06;16.30;98.30
29031;DHT22;16122;50.236;11.734;2023-12-14T11:15:35;16.40;98.10
29031;DHT22;16122;50.236;11.734;2023-12-14T11:23:32;16.30;99.90
29031;DHT22;16122;50.236;11.734;2023-12-14T11:26:02;16.30;99.90
29031;DHT22;16122;50.236;11.734;2023-12-14T11:28:35;16.40;99.90
29031;DHT22;16122;50.236;11.734;2023-12-14T11:31:02;16.30;99.90
29031;DHT22;16122;50.236;11.734;2023-12-14T11:33:33;16.30;99.90
29031;DHT22;16122;50.236;11.734;2023-12-14T11:35:58;16.30;99.90
29031;DHT22;16122;50.236;11.734;2023-12-14T11:38:25;16.30;99.90
29031;DHT22;16122;50.236;11.734;2023-12-14T11:40:52;16.20;99.90
29031;DHT22;16122;50.236;11.734;2023-12-14T11:43:18;16.20;99.90
29031;DHT22;16122;50.236;11.734;2023-12-14T11:45:47;16.30;99.90
29031;DHT22;16122;50.236;11.734;2023-12-14T11:48:13;16.20;99.90
29031;DHT22;16122;50.236;11.734;2023-12-14T11:50:40;16.20;99.90
29031;DHT22;16122;50.236;11.734;2023-12-14T11:53:07;16.20;99.90
29031;DHT22;16122;50.236;11.734;2023-12-14T11:55:39;16.30;99.90
29031;DHT22;16122;50.236;11.734;2023-12-14T11:58:05;16.30;99.90
29031;DHT22;16122;50.236;11.734;2023-12-14T12:00:32;16.20;99.90
29031;DHT22;16122;50.236;11.734;2023-12-14T12:03:20;16.30;99.90
29031;DHT22;16122;50.236;11.734;2023-12-14T12:05:51;16.30;99.90
29031;DHT22;16122;50.236;11.734;2023-12-14T12:08:20;16.40;99.90
29031;DHT22;16122;50.236;11.734;2023-12-14T12:10:48;16.30;99.90
29031;DHT22;16122;50.236;11.734;2023-12-14T12:13:16;16.40;99.90
29031;DHT22;16122;50.236;11.734;2023-12-14T12:15:42;16.40;99.90
29031;DHT22;16122;50.236;11.734;2023-12-14T12:18:09;16.40;99.90
29031;DHT22;16122;50.236;11.734;2023-12-14T12:20:35;16.40;99.90
29031;DHT22;16122;50.236;11.734;2023-12-14T12:23:02;16.40;99.90
29031;DHT22;16122;50.236;11.734;2023-12-14T12:25:30;16.40;99.90
29031;DHT22;16122;50.236;11.734;2023-12-14T12:28:00;16.40;99.90
29031;DHT22;16122;50.236;11.734;2023-12-14T12:30:27;16.40;99.90
29031;DHT22;16122;50.236;11.734;2023-12-14T12:32:53;16.30;99.90
29031;DHT22;16122;50.236;11.734;2023-12-14T12:35:22;16.40;99.90
29031;DHT22;16122;50.236;11.734;2023-12-14T12:37:47;16.40;99.90
29031;DHT22;16122;50.236;11.734;2023-12-14T12:40:19;16.40;99.90
29031;DHT22;16122;50.236;11.734;2023-12-14T12:42:46;16.30;99.90
29031;DHT22;16122;50.236;11.734;2023-12-14T12:45:17;16.40;99.90
29031;DHT22;16122;50.236;11.734;2023-12-14T12:47:53;16.30;99.80
29031;DHT22;16122;50.236;11.734;2023-12-14T12:50:19;16.40;99.80
29031;DHT22;16122;50.236;11.734;2023-12-14T12:52:46;16.40;99.80
29031;DHT22;16122;50.236;11.734;2023-12-14T12:55:14;16.30;99.70
29031;DHT22;16122;50.236;11.734;2023-12-14T12:57:41;16.40;99.60
29031;DHT22;16122;50.236;11.734;2023-12-14T13:00:08;16.40;99.50
29031;DHT22;16122;50.236;11.734;2023-12-14T13:02:38;16.50;99.40
29031;DHT22;16122;50.236;11.734;2023-12-14T13:05:05;16.40;99.30
29031;DHT22;16122;50.236;11.734;2023-12-14T13:07:32;16.40;99.10
29031;DHT22;16122;50.236;11.734;2023-12-14T13:09:57;16.40;99.00
29031;DHT22;16122;50.236;11.734;2023-12-14T13:12:23;16.40;98.80
29031;DHT22;16122;50.236;11.734;2023-12-14T13:14:49;16.40;98.90
29031;DHT22;16122;50.236;11.734;2023-12-14T13:17:15;16.40;99.30
29031;DHT22;16122;50.236;11.734;2023-12-14T13:19:44;16.40;99.40
29031;DHT22;16122;50.236;11.734;2023-12-14T13:22:10;16.50;99.40
29031;DHT22;16122;50.236;11.734;2023-12-14T13:24:37;16.50;99.50
29031;DHT22;16122;50.236;11.734;2023-12-14T13:27:04;16.50;99.40
29031;DHT22;16122;50.236;11.734;2023-12-14T13:29:30;16.40;99.40
29031;DHT22;16122;50.236;11.734;2023-12-14T13:31:58;16.40;99.40
29031;DHT22;16122;50.236;11.734;2023-12-14T13:34:25;16.40;99.30
29031;DHT22;16122;50.236;11.734;2023-12-14T13:36:51;16.40;99.30
29031;DHT22;16122;50.236;11.734;2023-12-14T13:39:17;16.40;99.30
29031;DHT22;16122;50.236;11.734;2023-12-14T13:41:43;16.30;99.20
29031;DHT22;16122;50.236;11.734;2023-12-14T13:44:09;16.30;99.20
29031;DHT22;16122;50.236;11.734;2023-12-14T13:46:34;16.30;99.10
29031;DHT22;16122;50.236;11.734;2023-12-14T13:49:00;16.30;99.10
29031;DHT22;16122;50.236;11.734;2023-12-14T13:51:28;16.40;99.10
29031;DHT22;16122;50.236;11.734;2023-12-14T13:53:53;16.40;99.10
29031;DHT22;16122;50.236;11.734;2023-12-14T13:56:19;16.30;99.20
29031;DHT22;16122;50.236;11.734;2023-12-14T13:58:45;16.40;99.40
29031;DHT22;16122;50.236;11.734;2023-12-14T14:01:11;16.30;99.40
29031;DHT22;16122;50.236;11.734;2023-12-14T14:03:37;16.30;99.30
29031;DHT22;16122;50.236;11.734;2023-12-14T14:06:05;16.30;99.40
29031;DHT22;16122;50.236;11.734;2023-12-14T14:08:30;16.30;99.50
29031;DHT22;16122;50.236;11.734;2023-12-14T14:10:59;16.30;99.40
29031;DHT22;16122;50.236;11.734;2023-12-14T14:13:26;16.30;99.40
29031;DHT22;16122;50.236;11.734;2023-12-14T14:15:52;16.30;99.30
29031;DHT22;16122;50.236;11.734;2023-12-14T14:18:18;16.40;99.40
29031;DHT22;16122;50.236;11.734;2023-12-14T14:20:44;16.40;99.50
29031;DHT22;16122;50.236;11.734;2023-12-14T14:23:09;16.40;99.40
29031;DHT22;16122;50.236;11.734;2023-12-14T14:25:35;16.40;99.50
29031;DHT22;16122;50.236;11.734;2023-12-14T14:28:01;16.50;99.40
29031;DHT22;16122;50.236;11.734;2023-12-14T14:30:28;16.50;99.50
29031;DHT22;16122;50.236;11.734;2023-12-14T14:32:54;16.40;99.50
29031;DHT22;16122;50.236;11.734;2023-12-14T14:35:19;16.50;99.70
29031;DHT22;16122;50.236;11.734;2023-12-14T14:37:46;16.50;99.60
29031;DHT22;16122;50.236;11.734;2023-12-14T14:40:12;16.50;99.50
29031;DHT22;16122;50.236;11.734;2023-12-14T14:42:39;16.50;99.60
29031;DHT22;16122;50.236;11.734;2023-12-14T14:45:07;16.40;99.50
29031;DHT22;16122;50.236;11.734;2023-12-14T14:47:34;16.40;99.70
29031;DHT22;16122;50.236;11.734;2023-12-14T14:50:00;16.40;99.70
29031;DHT22;16122;50.236;11.734;2023-12-14T14:52:30;16.40;99.50
29031;DHT22;16122;50.236;11.734;2023-12-14T14:54:56;16.40;99.50
29031;DHT22;16122;50.236;11.734;2023-12-14T14:57:22;16.40;99.40
29031;DHT22;16122;50.236;11.734;2023-12-14T14:59:48;16.40;99.50
29031;DHT22;16122;50.236;11.734;2023-12-14T15:02:14;16.40;99.40
29031;DHT22;16122;50.236;11.734;2023-12-14T15:04:39;16.40;99.30
29031;DHT22;16122;50.236;11.734;2023-12-14T15:07:05;16.40;99.20
29031;DHT22;16122;50.236;11.734;2023-12-14T15:09:31;16.40;99.10
29031;DHT22;16122;50.236;11.734;2023-12-14T15:11:57;16.40;99.30
29031;DHT22;16122;50.236;11.734;2023-12-14T15:14:23;16.40;99.20
29031;DHT22;16122;50.236;11.734;2023-12-14T15:16:48;16.30;98.90
29031;DHT22;16122;50.236;11.734;2023-12-14T15:19:14;16.40;99.00